Main page
METAR-TAF:

METAR-TAF

Airports :

Reykjavík, Iceland

Reykjavík Airport

latitude: 64-08N, longitude: 021-54W, elevation: 54 m

Current weather observation

The report was made 50 minutes ago, at 11:00 UTC
Wind 10 kt from the South/Southeast
Temperature 13°C
Humidity 62%
Pressure 1020 hPa
Visibility 10 km or more
Scattered clouds at a height of 3000 ft
Overcast at a height of 20000 ft

METAR: BIRK 211100Z 15010KT 9999 SCT030 OVC200 13/06 Q1020

Time: 11:50 (11:50 UTC)

Forecast

The report was made 1 hour and 6 minutes ago, at 10:44 UTC
Forecast valid from 21 at 12 UTC to 22 at 12 UTC
Wind 7 kt from variable directions
Visibility 10 km or more
Scattered clouds at a height of 2700 ft

TAF: BIRK 211044Z 2112/2212 VRB07KT 9999 SCT027 TX16/2115Z TN07/2208Z

Weather observations and forecasts of more than 4000 airports (METAR and TAF reports).

The available stations are represented by yellow and red dots on the map.

Hover mouse over dot to see the name of the station.

Then click to see weather observations and forecasts.

To change the map : click on the green buttons with a black cross to zoom in, on the green button with a dash to zoom out, or on the green arrows for adjacent maps.


METAR-TAF: